sensor_id;sensor_type;location;lat;lon;timestamp;P1;durP1;ratioP1;P2;durP2;ratioP2
73816;SDS011;62146;53.232;-1.304;2023-04-03T00:00:39;4.77;;;1.83;;
73816;SDS011;62146;53.232;-1.304;2023-04-03T00:03:06;6.13;;;1.40;;
73816;SDS011;62146;53.232;-1.304;2023-04-03T00:05:33;4.32;;;1.63;;
73816;SDS011;62146;53.232;-1.304;2023-04-03T00:08:00;6.07;;;1.70;;
73816;SDS011;62146;53.232;-1.304;2023-04-03T00:10:28;6.28;;;1.67;;
73816;SDS011;62146;53.232;-1.304;2023-04-03T00:12:54;6.27;;;1.57;;
73816;SDS011;62146;53.232;-1.304;2023-04-03T00:15:21;5.85;;;1.60;;
73816;SDS011;62146;53.232;-1.304;2023-04-03T00:17:47;6.18;;;1.80;;
73816;SDS011;62146;53.232;-1.304;2023-04-03T00:20:14;6.72;;;1.52;;
73816;SDS011;62146;53.232;-1.304;2023-04-03T00:22:41;6.38;;;1.45;;
73816;SDS011;62146;53.232;-1.304;2023-04-03T00:25:08;5.03;;;1.50;;
73816;SDS011;62146;53.232;-1.304;2023-04-03T00:27:38;6.13;;;1.40;;
73816;SDS011;62146;53.232;-1.304;2023-04-03T01:03:37;6.40;;;1.67;;
73816;SDS011;62146;53.232;-1.304;2023-04-03T01:06:04;4.95;;;2.10;;
73816;SDS011;62146;53.232;-1.304;2023-04-03T01:08:31;5.18;;;1.88;;
73816;SDS011;62146;53.232;-1.304;2023-04-03T01:10:57;7.28;;;2.60;;
73816;SDS011;62146;53.232;-1.304;2023-04-03T01:13:29;6.50;;;2.50;;
73816;SDS011;62146;53.232;-1.304;2023-04-03T01:15:57;7.68;;;2.83;;
73816;SDS011;62146;53.232;-1.304;2023-04-03T01:18:28;9.55;;;2.78;;
73816;SDS011;62146;53.232;-1.304;2023-04-03T01:23:56;8.43;;;3.55;;
73816;SDS011;62146;53.232;-1.304;2023-04-03T01:26:30;9.07;;;3.70;;
73816;SDS011;62146;53.232;-1.304;2023-04-03T01:28:58;9.05;;;3.08;;
73816;SDS011;62146;53.232;-1.304;2023-04-03T01:34:02;9.68;;;3.20;;
73816;SDS011;62146;53.232;-1.304;2023-04-03T01:36:30;9.20;;;3.45;;
73816;SDS011;62146;53.232;-1.304;2023-04-03T01:38:58;6.93;;;2.97;;
73816;SDS011;62146;53.232;-1.304;2023-04-03T01:41:26;7.28;;;2.92;;
73816;SDS011;62146;53.232;-1.304;2023-04-03T01:43:53;9.27;;;3.40;;
73816;SDS011;62146;53.232;-1.304;2023-04-03T01:46:19;6.38;;;2.72;;
73816;SDS011;62146;53.232;-1.304;2023-04-03T01:48:47;9.68;;;2.83;;
73816;SDS011;62146;53.232;-1.304;2023-04-03T01:51:14;7.50;;;2.87;;
73816;SDS011;62146;53.232;-1.304;2023-04-03T01:53:41;7.55;;;2.60;;
73816;SDS011;62146;53.232;-1.304;2023-04-03T01:56:08;6.75;;;2.80;;
73816;SDS011;62146;53.232;-1.304;2023-04-03T01:58:35;8.00;;;2.65;;
73816;SDS011;62146;53.232;-1.304;2023-04-03T02:01:02;8.50;;;2.60;;
73816;SDS011;62146;53.232;-1.304;2023-04-03T02:03:28;9.23;;;2.60;;
73816;SDS011;62146;53.232;-1.304;2023-04-03T02:05:55;8.65;;;2.80;;
73816;SDS011;62146;53.232;-1.304;2023-04-03T02:08:22;8.85;;;2.85;;
73816;SDS011;62146;53.232;-1.304;2023-04-03T02:10:50;6.28;;;2.65;;
73816;SDS011;62146;53.232;-1.304;2023-04-03T02:13:17;9.95;;;3.10;;
73816;SDS011;62146;53.232;-1.304;2023-04-03T02:15:43;7.60;;;3.00;;
73816;SDS011;62146;53.232;-1.304;2023-04-03T02:18:11;8.32;;;2.72;;
73816;SDS011;62146;53.232;-1.304;2023-04-03T02:20:38;6.57;;;3.00;;
73816;SDS011;62146;53.232;-1.304;2023-04-03T02:23:05;7.07;;;2.85;;
73816;SDS011;62146;53.232;-1.304;2023-04-03T02:25:32;7.53;;;2.75;;
73816;SDS011;62146;53.232;-1.304;2023-04-03T02:28:01;8.13;;;2.70;;
73816;SDS011;62146;53.232;-1.304;2023-04-03T02:30:28;8.70;;;3.13;;
73816;SDS011;62146;53.232;-1.304;2023-04-03T02:32:54;8.70;;;3.53;;
73816;SDS011;62146;53.232;-1.304;2023-04-03T02:35:22;7.18;;;2.58;;
73816;SDS011;62146;53.232;-1.304;2023-04-03T02:37:48;10.25;;;3.35;;
73816;SDS011;62146;53.232;-1.304;2023-04-03T02:40:15;7.00;;;2.63;;
73816;SDS011;62146;53.232;-1.304;2023-04-03T02:42:42;8.85;;;2.80;;
73816;SDS011;62146;53.232;-1.304;2023-04-03T02:45:08;6.80;;;2.78;;
73816;SDS011;62146;53.232;-1.304;2023-04-03T02:47:35;8.07;;;2.75;;
73816;SDS011;62146;53.232;-1.304;2023-04-03T02:50:02;7.05;;;2.40;;
73816;SDS011;62146;53.232;-1.304;2023-04-03T02:52:28;7.43;;;2.40;;
73816;SDS011;62146;53.232;-1.304;2023-04-03T02:54:55;6.97;;;2.75;;
73816;SDS011;62146;53.232;-1.304;2023-04-03T02:57:22;9.35;;;2.97;;
73816;SDS011;62146;53.232;-1.304;2023-04-03T02:59:48;12.10;;;2.58;;
73816;SDS011;62146;53.232;-1.304;2023-04-03T03:02:15;6.88;;;2.33;;
73816;SDS011;62146;53.232;-1.304;2023-04-03T03:04:42;6.23;;;2.53;;
73816;SDS011;62146;53.232;-1.304;2023-04-03T03:07:09;7.50;;;2.50;;
73816;SDS011;62146;53.232;-1.304;2023-04-03T03:09:35;6.85;;;2.60;;
73816;SDS011;62146;53.232;-1.304;2023-04-03T03:12:02;8.57;;;2.85;;
73816;SDS011;62146;53.232;-1.304;2023-04-03T03:14:29;10.02;;;2.70;;
73816;SDS011;62146;53.232;-1.304;2023-04-03T03:16:55;8.43;;;2.57;;
73816;SDS011;62146;53.232;-1.304;2023-04-03T03:19:22;7.53;;;2.50;;
73816;SDS011;62146;53.232;-1.304;2023-04-03T03:21:48;8.90;;;2.70;;
73816;SDS011;62146;53.232;-1.304;2023-04-03T03:24:15;6.47;;;2.45;;
73816;SDS011;62146;53.232;-1.304;2023-04-03T03:26:42;9.93;;;2.55;;
73816;SDS011;62146;53.232;-1.304;2023-04-03T03:29:09;7.10;;;2.73;;
73816;SDS011;62146;53.232;-1.304;2023-04-03T03:31:36;7.43;;;2.97;;
73816;SDS011;62146;53.232;-1.304;2023-04-03T03:34:02;7.00;;;2.75;;
73816;SDS011;62146;53.232;-1.304;2023-04-03T03:36:29;8.32;;;2.88;;
73816;SDS011;62146;53.232;-1.304;2023-04-03T03:38:56;7.90;;;2.60;;
73816;SDS011;62146;53.232;-1.304;2023-04-03T03:41:23;12.03;;;2.90;;
73816;SDS011;62146;53.232;-1.304;2023-04-03T03:43:50;7.05;;;2.70;;
73816;SDS011;62146;53.232;-1.304;2023-04-03T03:46:17;6.20;;;2.58;;
73816;SDS011;62146;53.232;-1.304;2023-04-03T03:48:43;6.90;;;2.65;;
73816;SDS011;62146;53.232;-1.304;2023-04-03T03:51:10;8.27;;;2.78;;
73816;SDS011;62146;53.232;-1.304;2023-04-03T03:53:37;7.50;;;3.00;;
73816;SDS011;62146;53.232;-1.304;2023-04-03T03:56:04;9.65;;;2.95;;
73816;SDS011;62146;53.232;-1.304;2023-04-03T03:58:31;6.38;;;2.53;;
73816;SDS011;62146;53.232;-1.304;2023-04-03T04:01:02;7.78;;;2.95;;
73816;SDS011;62146;53.232;-1.304;2023-04-03T04:03:29;8.23;;;2.47;;
73816;SDS011;62146;53.232;-1.304;2023-04-03T04:05:57;8.17;;;2.53;;
73816;SDS011;62146;53.232;-1.304;2023-04-03T04:08:24;6.38;;;2.55;;
73816;SDS011;62146;53.232;-1.304;2023-04-03T04:10:51;6.53;;;2.45;;
73816;SDS011;62146;53.232;-1.304;2023-04-03T04:13:18;5.82;;;2.58;;
73816;SDS011;62146;53.232;-1.304;2023-04-03T04:15:44;6.53;;;2.60;;
73816;SDS011;62146;53.232;-1.304;2023-04-03T04:18:11;6.50;;;2.60;;
73816;SDS011;62146;53.232;-1.304;2023-04-03T04:20:38;5.93;;;2.45;;
73816;SDS011;62146;53.232;-1.304;2023-04-03T04:23:04;6.43;;;2.88;;
73816;SDS011;62146;53.232;-1.304;2023-04-03T04:25:31;10.25;;;2.70;;
73816;SDS011;62146;53.232;-1.304;2023-04-03T04:27:57;5.50;;;2.30;;
73816;SDS011;62146;53.232;-1.304;2023-04-03T04:30:24;9.00;;;2.73;;
73816;SDS011;62146;53.232;-1.304;2023-04-03T04:32:51;7.15;;;2.55;;
73816;SDS011;62146;53.232;-1.304;2023-04-03T04:35:17;7.10;;;2.80;;
73816;SDS011;62146;53.232;-1.304;2023-04-03T04:37:44;7.22;;;2.78;;
73816;SDS011;62146;53.232;-1.304;2023-04-03T04:40:11;7.25;;;2.60;;
73816;SDS011;62146;53.232;-1.304;2023-04-03T04:42:37;7.90;;;3.10;;
73816;SDS011;62146;53.232;-1.304;2023-04-03T04:45:04;7.80;;;2.78;;
73816;SDS011;62146;53.232;-1.304;2023-04-03T04:47:31;8.32;;;2.92;;
73816;SDS011;62146;53.232;-1.304;2023-04-03T04:49:57;7.70;;;3.05;;
73816;SDS011;62146;53.232;-1.304;2023-04-03T04:52:24;7.70;;;2.90;;
73816;SDS011;62146;53.232;-1.304;2023-04-03T04:54:51;8.33;;;2.93;;
73816;SDS011;62146;53.232;-1.304;2023-04-03T04:57:17;8.80;;;3.38;;
73816;SDS011;62146;53.232;-1.304;2023-04-03T04:59:44;11.15;;;3.42;;
73816;SDS011;62146;53.232;-1.304;2023-04-03T05:02:11;10.38;;;3.53;;
73816;SDS011;62146;53.232;-1.304;2023-04-03T05:04:37;10.65;;;4.05;;
73816;SDS011;62146;53.232;-1.304;2023-04-03T05:07:04;7.57;;;3.13;;
73816;SDS011;62146;53.232;-1.304;2023-04-03T05:09:31;9.30;;;3.33;;
73816;SDS011;62146;53.232;-1.304;2023-04-03T05:11:57;10.18;;;3.80;;
73816;SDS011;62146;53.232;-1.304;2023-04-03T05:14:24;10.05;;;3.70;;
73816;SDS011;62146;53.232;-1.304;2023-04-03T05:16:51;9.65;;;3.70;;
73816;SDS011;62146;53.232;-1.304;2023-04-03T05:19:20;9.97;;;4.07;;
73816;SDS011;62146;53.232;-1.304;2023-04-03T05:21:47;9.32;;;3.55;;
73816;SDS011;62146;53.232;-1.304;2023-04-03T05:24:14;8.93;;;3.60;;
73816;SDS011;62146;53.232;-1.304;2023-04-03T05:26:41;10.75;;;3.80;;
73816;SDS011;62146;53.232;-1.304;2023-04-03T05:29:08;8.75;;;3.10;;
73816;SDS011;62146;53.232;-1.304;2023-04-03T05:31:35;11.90;;;3.53;;
73816;SDS011;62146;53.232;-1.304;2023-04-03T05:34:02;12.07;;;4.63;;
73816;SDS011;62146;53.232;-1.304;2023-04-03T05:36:29;9.75;;;3.22;;
73816;SDS011;62146;53.232;-1.304;2023-04-03T05:38:57;9.32;;;3.60;;
73816;SDS011;62146;53.232;-1.304;2023-04-03T05:41:24;8.55;;;3.40;;
73816;SDS011;62146;53.232;-1.304;2023-04-03T05:43:51;9.63;;;3.90;;
73816;SDS011;62146;53.232;-1.304;2023-04-03T05:46:18;10.13;;;3.72;;
73816;SDS011;62146;53.232;-1.304;2023-04-03T05:48:45;10.20;;;3.70;;
73816;SDS011;62146;53.232;-1.304;2023-04-03T05:51:17;8.75;;;3.63;;
73816;SDS011;62146;53.232;-1.304;2023-04-03T05:53:47;12.55;;;3.75;;
73816;SDS011;62146;53.232;-1.304;2023-04-03T05:56:18;8.23;;;3.47;;
73816;SDS011;62146;53.232;-1.304;2023-04-03T05:58:44;9.10;;;3.55;;
73816;SDS011;62146;53.232;-1.304;2023-04-03T06:01:11;10.55;;;3.63;;
73816;SDS011;62146;53.232;-1.304;2023-04-03T06:03:37;8.50;;;3.30;;
73816;SDS011;62146;53.232;-1.304;2023-04-03T06:06:06;10.40;;;3.50;;
73816;SDS011;62146;53.232;-1.304;2023-04-03T06:08:34;8.03;;;3.47;;
73816;SDS011;62146;53.232;-1.304;2023-04-03T06:11:01;9.48;;;3.55;;
73816;SDS011;62146;53.232;-1.304;2023-04-03T06:13:28;9.15;;;3.33;;
73816;SDS011;62146;53.232;-1.304;2023-04-03T06:15:55;9.02;;;2.97;;
73816;SDS011;62146;53.232;-1.304;2023-04-03T06:18:23;7.78;;;3.72;;
73816;SDS011;62146;53.232;-1.304;2023-04-03T06:20:49;7.50;;;3.50;;
73816;SDS011;62146;53.232;-1.304;2023-04-03T06:23:16;10.70;;;3.40;;
73816;SDS011;62146;53.232;-1.304;2023-04-03T06:25:43;8.60;;;3.13;;
73816;SDS011;62146;53.232;-1.304;2023-04-03T06:28:10;9.82;;;3.42;;
73816;SDS011;62146;53.232;-1.304;2023-04-03T06:30:37;9.38;;;3.50;;
73816;SDS011;62146;53.232;-1.304;2023-04-03T06:33:04;7.27;;;3.20;;
73816;SDS011;62146;53.232;-1.304;2023-04-03T06:35:31;9.25;;;3.10;;
73816;SDS011;62146;53.232;-1.304;2023-04-03T06:37:57;8.30;;;3.22;;
73816;SDS011;62146;53.232;-1.304;2023-04-03T06:40:24;9.90;;;3.67;;
73816;SDS011;62146;53.232;-1.304;2023-04-03T06:42:52;9.73;;;3.55;;
73816;SDS011;62146;53.232;-1.304;2023-04-03T06:45:19;6.27;;;2.47;;
73816;SDS011;62146;53.232;-1.304;2023-04-03T06:47:46;7.20;;;3.20;;
73816;SDS011;62146;53.232;-1.304;2023-04-03T06:50:13;6.25;;;3.17;;
73816;SDS011;62146;53.232;-1.304;2023-04-03T06:52:41;9.15;;;3.25;;
73816;SDS011;62146;53.232;-1.304;2023-04-03T06:55:08;10.15;;;3.42;;
73816;SDS011;62146;53.232;-1.304;2023-04-03T06:57:36;8.47;;;3.00;;
73816;SDS011;62146;53.232;-1.304;2023-04-03T07:00:04;7.13;;;3.20;;
73816;SDS011;62146;53.232;-1.304;2023-04-03T07:02:32;7.88;;;3.30;;
73816;SDS011;62146;53.232;-1.304;2023-04-03T07:04:59;7.35;;;3.00;;
73816;SDS011;62146;53.232;-1.304;2023-04-03T07:07:25;7.80;;;3.25;;
73816;SDS011;62146;53.232;-1.304;2023-04-03T07:09:52;7.63;;;2.90;;
73816;SDS011;62146;53.232;-1.304;2023-04-03T07:12:19;7.20;;;3.10;;
73816;SDS011;62146;53.232;-1.304;2023-04-03T07:14:46;8.20;;;3.22;;
73816;SDS011;62146;53.232;-1.304;2023-04-03T07:17:13;7.80;;;3.00;;
73816;SDS011;62146;53.232;-1.304;2023-04-03T07:19:39;8.00;;;3.40;;
73816;SDS011;62146;53.232;-1.304;2023-04-03T07:22:07;8.07;;;3.20;;
73816;SDS011;62146;53.232;-1.304;2023-04-03T07:24:34;9.05;;;3.70;;
73816;SDS011;62146;53.232;-1.304;2023-04-03T07:27:01;7.18;;;3.50;;
73816;SDS011;62146;53.232;-1.304;2023-04-03T07:29:28;7.85;;;3.55;;
73816;SDS011;62146;53.232;-1.304;2023-04-03T07:31:55;8.15;;;3.40;;
73816;SDS011;62146;53.232;-1.304;2023-04-03T07:34:22;7.10;;;3.10;;
73816;SDS011;62146;53.232;-1.304;2023-04-03T07:36:48;7.43;;;3.25;;
73816;SDS011;62146;53.232;-1.304;2023-04-03T07:39:15;8.38;;;3.30;;
73816;SDS011;62146;53.232;-1.304;2023-04-03T07:41:42;9.25;;;3.25;;
73816;SDS011;62146;53.232;-1.304;2023-04-03T07:44:08;9.05;;;3.40;;
73816;SDS011;62146;53.232;-1.304;2023-04-03T07:46:36;6.27;;;3.27;;
73816;SDS011;62146;53.232;-1.304;2023-04-03T07:49:04;9.75;;;3.67;;
73816;SDS011;62146;53.232;-1.304;2023-04-03T07:51:30;9.75;;;3.65;;
73816;SDS011;62146;53.232;-1.304;2023-04-03T07:53:57;9.20;;;3.97;;
73816;SDS011;62146;53.232;-1.304;2023-04-03T07:56:24;9.90;;;3.90;;
73816;SDS011;62146;53.232;-1.304;2023-04-03T07:58:51;9.90;;;3.40;;
73816;SDS011;62146;53.232;-1.304;2023-04-03T08:01:18;9.13;;;3.53;;
73816;SDS011;62146;53.232;-1.304;2023-04-03T08:03:44;8.60;;;3.55;;
73816;SDS011;62146;53.232;-1.304;2023-04-03T08:06:11;8.15;;;3.28;;
73816;SDS011;62146;53.232;-1.304;2023-04-03T08:08:42;7.15;;;2.95;;
73816;SDS011;62146;53.232;-1.304;2023-04-03T08:11:09;6.43;;;3.10;;
73816;SDS011;62146;53.232;-1.304;2023-04-03T08:13:37;10.52;;;3.80;;
73816;SDS011;62146;53.232;-1.304;2023-04-03T08:16:11;8.15;;;3.65;;
73816;SDS011;62146;53.232;-1.304;2023-04-03T08:18:39;9.07;;;3.72;;
73816;SDS011;62146;53.232;-1.304;2023-04-03T08:21:07;9.57;;;3.75;;
73816;SDS011;62146;53.232;-1.304;2023-04-03T08:23:38;8.37;;;3.60;;
73816;SDS011;62146;53.232;-1.304;2023-04-03T08:26:12;8.85;;;3.90;;
73816;SDS011;62146;53.232;-1.304;2023-04-03T08:28:43;7.75;;;3.30;;
73816;SDS011;62146;53.232;-1.304;2023-04-03T08:31:11;8.77;;;3.80;;
73816;SDS011;62146;53.232;-1.304;2023-04-03T08:33:41;7.50;;;3.42;;
73816;SDS011;62146;53.232;-1.304;2023-04-03T08:36:14;9.93;;;3.50;;
73816;SDS011;62146;53.232;-1.304;2023-04-03T08:38:53;7.63;;;3.58;;
73816;SDS011;62146;53.232;-1.304;2023-04-03T08:44:02;5.95;;;2.63;;
73816;SDS011;62146;53.232;-1.304;2023-04-03T08:46:42;10.35;;;3.22;;
73816;SDS011;62146;53.232;-1.304;2023-04-03T08:49:25;7.33;;;2.60;;
73816;SDS011;62146;53.232;-1.304;2023-04-03T08:51:57;7.90;;;2.20;;
73816;SDS011;62146;53.232;-1.304;2023-04-03T08:57:32;9.15;;;2.20;;
73816;SDS011;62146;53.232;-1.304;2023-04-03T09:00:03;5.38;;;1.95;;
73816;SDS011;62146;53.232;-1.304;2023-04-03T09:02:52;6.90;;;2.20;;
73816;SDS011;62146;53.232;-1.304;2023-04-03T09:08:33;7.18;;;1.73;;
73816;SDS011;62146;53.232;-1.304;2023-04-03T09:14:01;4.13;;;1.50;;
73816;SDS011;62146;53.232;-1.304;2023-04-03T09:16:43;5.50;;;1.30;;
73816;SDS011;62146;53.232;-1.304;2023-04-03T09:21:57;4.93;;;1.20;;
73816;SDS011;62146;53.232;-1.304;2023-04-03T09:24:58;3.53;;;1.00;;
73816;SDS011;62146;53.232;-1.304;2023-04-03T09:27:31;4.68;;;1.35;;
73816;SDS011;62146;53.232;-1.304;2023-04-03T09:29:58;5.13;;;1.50;;
73816;SDS011;62146;53.232;-1.304;2023-04-03T09:34:57;7.45;;;1.30;;
73816;SDS011;62146;53.232;-1.304;2023-04-03T09:37:45;4.40;;;1.15;;
73816;SDS011;62146;53.232;-1.304;2023-04-03T09:42:57;2.80;;;1.00;;
73816;SDS011;62146;53.232;-1.304;2023-04-03T09:45:47;3.50;;;1.10;;
73816;SDS011;62146;53.232;-1.304;2023-04-03T09:48:16;5.47;;;1.23;;
73816;SDS011;62146;53.232;-1.304;2023-04-03T09:56:03;4.57;;;1.23;;
73816;SDS011;62146;53.232;-1.304;2023-04-03T09:59:05;3.88;;;1.20;;
73816;SDS011;62146;53.232;-1.304;2023-04-03T10:01:39;3.08;;;1.00;;
73816;SDS011;62146;53.232;-1.304;2023-04-03T10:04:18;3.33;;;1.10;;
73816;SDS011;62146;53.232;-1.304;2023-04-03T10:06:48;5.25;;;1.20;;
73816;SDS011;62146;53.232;-1.304;2023-04-03T10:14:33;5.30;;;1.40;;
73816;SDS011;62146;53.232;-1.304;2023-04-03T10:17:17;3.58;;;1.00;;
73816;SDS011;62146;53.232;-1.304;2023-04-03T10:28:54;4.72;;;1.27;;
73816;SDS011;62146;53.232;-1.304;2023-04-03T10:31:36;6.35;;;1.40;;
73816;SDS011;62146;53.232;-1.304;2023-04-03T10:34:25;3.80;;;1.50;;
73816;SDS011;62146;53.232;-1.304;2023-04-03T10:37:04;4.40;;;1.07;;
73816;SDS011;62146;53.232;-1.304;2023-04-03T10:45:10;5.75;;;1.73;;
73816;SDS011;62146;53.232;-1.304;2023-04-03T10:53:29;5.00;;;1.30;;
73816;SDS011;62146;53.232;-1.304;2023-04-03T10:58:50;3.90;;;1.20;;
73816;SDS011;62146;53.232;-1.304;2023-04-03T11:01:21;3.75;;;1.30;;
73816;SDS011;62146;53.232;-1.304;2023-04-03T11:03:54;3.20;;;1.37;;
73816;SDS011;62146;53.232;-1.304;2023-04-03T11:06:25;4.57;;;1.60;;
73816;SDS011;62146;53.232;-1.304;2023-04-03T11:08:59;4.05;;;1.33;;
73816;SDS011;62146;53.232;-1.304;2023-04-03T11:11:30;3.65;;;1.40;;
73816;SDS011;62146;53.232;-1.304;2023-04-03T11:14:08;5.65;;;1.42;;
73816;SDS011;62146;53.232;-1.304;2023-04-03T11:16:43;5.90;;;1.50;;
73816;SDS011;62146;53.232;-1.304;2023-04-03T11:19:20;4.47;;;1.42;;
73816;SDS011;62146;53.232;-1.304;2023-04-03T11:24:46;7.80;;;1.70;;
73816;SDS011;62146;53.232;-1.304;2023-04-03T11:27:23;5.78;;;1.83;;
73816;SDS011;62146;53.232;-1.304;2023-04-03T11:29:50;5.13;;;1.70;;
73816;SDS011;62146;53.232;-1.304;2023-04-03T11:35:10;5.95;;;1.90;;
73816;SDS011;62146;53.232;-1.304;2023-04-03T11:37:39;6.45;;;1.80;;
73816;SDS011;62146;53.232;-1.304;2023-04-03T11:42:49;7.43;;;2.13;;
73816;SDS011;62146;53.232;-1.304;2023-04-03T11:48:06;6.68;;;2.85;;
73816;SDS011;62146;53.232;-1.304;2023-04-03T11:50:59;7.70;;;2.50;;
73816;SDS011;62146;53.232;-1.304;2023-04-03T11:53:47;6.40;;;2.40;;
73816;SDS011;62146;53.232;-1.304;2023-04-03T11:59:23;6.63;;;2.70;;
73816;SDS011;62146;53.232;-1.304;2023-04-03T12:01:48;5.43;;;2.53;;
73816;SDS011;62146;53.232;-1.304;2023-04-03T12:04:17;5.95;;;2.22;;
73816;SDS011;62146;53.232;-1.304;2023-04-03T12:06:51;5.72;;;2.40;;
73816;SDS011;62146;53.232;-1.304;2023-04-03T12:09:26;8.57;;;2.50;;
73816;SDS011;62146;53.232;-1.304;2023-04-03T12:12:21;5.80;;;2.58;;
73816;SDS011;62146;53.232;-1.304;2023-04-03T12:15:11;4.85;;;2.30;;
73816;SDS011;62146;53.232;-1.304;2023-04-03T12:17:56;6.05;;;2.30;;
73816;SDS011;62146;53.232;-1.304;2023-04-03T12:23:25;4.83;;;2.20;;
73816;SDS011;62146;53.232;-1.304;2023-04-03T12:26:05;5.68;;;2.20;;
73816;SDS011;62146;53.232;-1.304;2023-04-03T12:28:45;7.85;;;2.20;;
73816;SDS011;62146;53.232;-1.304;2023-04-03T12:31:12;7.88;;;2.65;;
73816;SDS011;62146;53.232;-1.304;2023-04-03T12:33:47;7.90;;;2.40;;
73816;SDS011;62146;53.232;-1.304;2023-04-03T12:45:24;6.80;;;2.40;;
73816;SDS011;62146;53.232;-1.304;2023-04-03T12:47:52;7.28;;;2.53;;
73816;SDS011;62146;53.232;-1.304;2023-04-03T12:50:25;6.10;;;2.10;;
73816;SDS011;62146;53.232;-1.304;2023-04-03T12:52:57;5.72;;;2.08;;
73816;SDS011;62146;53.232;-1.304;2023-04-03T12:55:29;7.50;;;2.25;;
73816;SDS011;62146;53.232;-1.304;2023-04-03T12:57:55;5.88;;;2.03;;
73816;SDS011;62146;53.232;-1.304;2023-04-03T13:00:27;6.10;;;2.22;;
73816;SDS011;62146;53.232;-1.304;2023-04-03T13:03:02;4.53;;;2.00;;
73816;SDS011;62146;53.232;-1.304;2023-04-03T13:05:31;7.25;;;2.13;;
73816;SDS011;62146;53.232;-1.304;2023-04-03T13:08:03;6.18;;;2.10;;
73816;SDS011;62146;53.232;-1.304;2023-04-03T13:10:35;4.38;;;2.15;;
73816;SDS011;62146;53.232;-1.304;2023-04-03T13:13:29;7.40;;;1.77;;
73816;SDS011;62146;53.232;-1.304;2023-04-03T13:15:56;4.27;;;1.80;;
73816;SDS011;62146;53.232;-1.304;2023-04-03T13:18:24;4.50;;;1.70;;
73816;SDS011;62146;53.232;-1.304;2023-04-03T13:20:55;4.90;;;1.80;;
73816;SDS011;62146;53.232;-1.304;2023-04-03T13:23:27;5.05;;;1.80;;
73816;SDS011;62146;53.232;-1.304;2023-04-03T13:25:54;6.13;;;2.30;;
73816;SDS011;62146;53.232;-1.304;2023-04-03T13:28:24;4.27;;;1.67;;
73816;SDS011;62146;53.232;-1.304;2023-04-03T13:30:57;3.75;;;1.60;;
73816;SDS011;62146;53.232;-1.304;2023-04-03T13:33:30;4.53;;;1.60;;
73816;SDS011;62146;53.232;-1.304;2023-04-03T13:36:02;6.90;;;1.95;;
73816;SDS011;62146;53.232;-1.304;2023-04-03T13:38:31;4.75;;;1.52;;
73816;SDS011;62146;53.232;-1.304;2023-04-03T13:41:01;5.63;;;1.83;;
73816;SDS011;62146;53.232;-1.304;2023-04-03T13:43:49;6.50;;;1.77;;
73816;SDS011;62146;53.232;-1.304;2023-04-03T13:46:24;5.22;;;1.50;;
73816;SDS011;62146;53.232;-1.304;2023-04-03T13:48:54;5.22;;;1.63;;
73816;SDS011;62146;53.232;-1.304;2023-04-03T13:51:24;4.28;;;1.60;;
73816;SDS011;62146;53.232;-1.304;2023-04-03T13:54:10;5.17;;;1.30;;
73816;SDS011;62146;53.232;-1.304;2023-04-03T13:56:44;4.40;;;1.40;;
73816;SDS011;62146;53.232;-1.304;2023-04-03T14:02:28;4.68;;;1.40;;
73816;SDS011;62146;53.232;-1.304;2023-04-03T14:04:29;4.15;;;1.70;;
73816;SDS011;62146;53.232;-1.304;2023-04-03T14:06:58;3.57;;;1.37;;
73816;SDS011;62146;53.232;-1.304;2023-04-03T14:09:26;7.93;;;1.48;;
73816;SDS011;62146;53.232;-1.304;2023-04-03T14:11:54;3.55;;;1.35;;
73816;SDS011;62146;53.232;-1.304;2023-04-03T14:14:27;4.28;;;1.33;;
73816;SDS011;62146;53.232;-1.304;2023-04-03T14:16:58;4.20;;;1.30;;
73816;SDS011;62146;53.232;-1.304;2023-04-03T14:19:35;6.07;;;1.40;;
73816;SDS011;62146;53.232;-1.304;2023-04-03T14:22:45;5.25;;;1.40;;
73816;SDS011;62146;53.232;-1.304;2023-04-03T14:24:54;3.95;;;1.55;;
73816;SDS011;62146;53.232;-1.304;2023-04-03T14:29:50;4.32;;;1.60;;
73816;SDS011;62146;53.232;-1.304;2023-04-03T14:32:19;3.40;;;1.20;;
73816;SDS011;62146;53.232;-1.304;2023-04-03T14:34:48;3.55;;;1.30;;
73816;SDS011;62146;53.232;-1.304;2023-04-03T14:37:16;3.08;;;1.13;;
73816;SDS011;62146;53.232;-1.304;2023-04-03T14:39:48;4.80;;;1.40;;
73816;SDS011;62146;53.232;-1.304;2023-04-03T14:42:17;4.78;;;1.30;;
73816;SDS011;62146;53.232;-1.304;2023-04-03T14:44:45;5.30;;;1.30;;
73816;SDS011;62146;53.232;-1.304;2023-04-03T14:47:13;3.60;;;1.13;;
73816;SDS011;62146;53.232;-1.304;2023-04-03T14:49:57;4.35;;;1.20;;
73816;SDS011;62146;53.232;-1.304;2023-04-03T14:52:31;3.53;;;1.10;;
73816;SDS011;62146;53.232;-1.304;2023-04-03T14:54:59;4.18;;;1.20;;
73816;SDS011;62146;53.232;-1.304;2023-04-03T14:57:27;3.83;;;1.20;;
73816;SDS011;62146;53.232;-1.304;2023-04-03T14:59:56;3.88;;;1.20;;
73816;SDS011;62146;53.232;-1.304;2023-04-03T15:02:35;5.05;;;1.50;;
73816;SDS011;62146;53.232;-1.304;2023-04-03T15:05:05;5.30;;;1.30;;
73816;SDS011;62146;53.232;-1.304;2023-04-03T15:07:38;4.35;;;1.40;;
73816;SDS011;62146;53.232;-1.304;2023-04-03T15:10:13;4.73;;;1.50;;
73816;SDS011;62146;53.232;-1.304;2023-04-03T15:12:43;4.07;;;1.30;;
73816;SDS011;62146;53.232;-1.304;2023-04-03T15:15:11;4.30;;;1.20;;
73816;SDS011;62146;53.232;-1.304;2023-04-03T15:17:38;3.58;;;1.30;;
73816;SDS011;62146;53.232;-1.304;2023-04-03T15:20:10;5.03;;;1.48;;
73816;SDS011;62146;53.232;-1.304;2023-04-03T15:22:39;5.13;;;1.20;;
73816;SDS011;62146;53.232;-1.304;2023-04-03T15:25:06;3.80;;;1.35;;
73816;SDS011;62146;53.232;-1.304;2023-04-03T15:27:34;3.75;;;1.40;;
73816;SDS011;62146;53.232;-1.304;2023-04-03T15:30:01;3.67;;;1.25;;
73816;SDS011;62146;53.232;-1.304;2023-04-03T15:32:29;3.42;;;1.30;;
73816;SDS011;62146;53.232;-1.304;2023-04-03T15:34:57;4.77;;;1.37;;
73816;SDS011;62146;53.232;-1.304;2023-04-03T15:37:24;3.60;;;1.20;;
73816;SDS011;62146;53.232;-1.304;2023-04-03T15:39:51;4.72;;;1.40;;
73816;SDS011;62146;53.232;-1.304;2023-04-03T15:42:17;4.72;;;1.20;;
73816;SDS011;62146;53.232;-1.304;2023-04-03T15:44:44;3.10;;;1.08;;
73816;SDS011;62146;53.232;-1.304;2023-04-03T15:47:11;4.97;;;1.23;;
73816;SDS011;62146;53.232;-1.304;2023-04-03T15:49:38;4.40;;;1.40;;
73816;SDS011;62146;53.232;-1.304;2023-04-03T15:52:05;3.47;;;1.10;;
73816;SDS011;62146;53.232;-1.304;2023-04-03T15:54:31;3.60;;;1.20;;
73816;SDS011;62146;53.232;-1.304;2023-04-03T15:56:58;3.13;;;1.20;;
73816;SDS011;62146;53.232;-1.304;2023-04-03T15:59:24;3.60;;;1.10;;
73816;SDS011;62146;53.232;-1.304;2023-04-03T16:01:51;3.38;;;1.23;;
73816;SDS011;62146;53.232;-1.304;2023-04-03T16:04:19;2.95;;;1.10;;
73816;SDS011;62146;53.232;-1.304;2023-04-03T16:06:47;4.00;;;1.23;;
73816;SDS011;62146;53.232;-1.304;2023-04-03T16:09:14;4.53;;;1.42;;
73816;SDS011;62146;53.232;-1.304;2023-04-03T16:11:41;4.37;;;1.30;;
73816;SDS011;62146;53.232;-1.304;2023-04-03T16:14:07;5.30;;;1.67;;
73816;SDS011;62146;53.232;-1.304;2023-04-03T16:16:34;4.15;;;1.45;;
73816;SDS011;62146;53.232;-1.304;2023-04-03T16:19:01;4.00;;;1.35;;
73816;SDS011;62146;53.232;-1.304;2023-04-03T16:21:29;4.55;;;1.30;;
73816;SDS011;62146;53.232;-1.304;2023-04-03T16:23:56;3.63;;;1.27;;
73816;SDS011;62146;53.232;-1.304;2023-04-03T16:26:24;3.97;;;1.30;;
73816;SDS011;62146;53.232;-1.304;2023-04-03T16:28:52;4.45;;;1.50;;
73816;SDS011;62146;53.232;-1.304;2023-04-03T16:31:19;2.95;;;1.15;;
73816;SDS011;62146;53.232;-1.304;2023-04-03T16:33:46;4.22;;;1.25;;
73816;SDS011;62146;53.232;-1.304;2023-04-03T16:36:13;3.80;;;1.30;;
73816;SDS011;62146;53.232;-1.304;2023-04-03T16:38:40;3.85;;;1.25;;
73816;SDS011;62146;53.232;-1.304;2023-04-03T16:41:06;4.95;;;1.38;;
73816;SDS011;62146;53.232;-1.304;2023-04-03T16:43:33;5.45;;;1.52;;
73816;SDS011;62146;53.232;-1.304;2023-04-03T16:46:01;4.97;;;1.50;;
73816;SDS011;62146;53.232;-1.304;2023-04-03T16:48:29;4.97;;;1.40;;
73816;SDS011;62146;53.232;-1.304;2023-04-03T16:50:57;3.60;;;1.27;;